Weather at Chester County G O Carlson Airport

Public forecast

Using degrees Fahrenheit for public forecast. Weather courtesy of forecast.io.

Current aviation weather report (METAR) for Chester County G O Carlson Airport

Report is more than 6 hours old.

2022/11/14 15:15 (retrieved 2 years ago)

KMQS 141515Z AUTO 33009G18KT 10SM FEW041 05/M05 A3037 RMK AO2

Closest aviation forecast (TAF) to Chester County G O Carlson Airport

Forecast is more than 12 hours old.

Closest forecast is Lancaster Airport, 21.6 nm (39.9 km) WNW.

2023/02/22 20:09 Ammendment (retrieved 1 year ago)

TAF AMD KLNS 222006Z 2220/2318 10009G15KT P6SM VCSH OVC060 FM222300 12004KT 6SM BR BKN025 OVC040 FM230400 11003KT 4SM BR OVC008 WS018/21038KT